createdAt,value
2023-08-06T00:01:36.136Z,1.30
2023-08-06T00:04:03.128Z,1.35
2023-08-06T00:06:29.985Z,1.10
2023-08-06T00:08:56.742Z,1.15
2023-08-06T00:11:24.146Z,1.20
2023-08-06T00:13:50.929Z,1.00
2023-08-06T00:16:17.772Z,1.23
2023-08-06T00:18:44.589Z,1.08
2023-08-06T00:21:13.667Z,0.93
2023-08-06T00:23:41.805Z,1.20
2023-08-06T00:26:08.611Z,1.25
2023-08-06T00:28:35.371Z,1.20
2023-08-06T00:31:02.160Z,1.30
2023-08-06T00:33:29.156Z,1.30
2023-08-06T00:35:55.892Z,1.15
2023-08-06T00:38:22.674Z,1.40
2023-08-06T00:40:49.416Z,1.00
2023-08-06T00:43:17.088Z,1.30
2023-08-06T00:45:44.690Z,1.20
2023-08-06T00:48:11.888Z,1.25
2023-08-06T00:50:38.679Z,1.15
2023-08-06T00:53:05.930Z,1.20
2023-08-06T00:55:34.648Z,1.10
2023-08-06T00:58:02.298Z,1.48
2023-08-06T01:00:30.206Z,1.27
2023-08-06T01:02:57.882Z,1.48
2023-08-06T01:05:24.785Z,1.40
2023-08-06T01:08:33.351Z,1.38
2023-08-06T01:11:39.043Z,1.92
2023-08-06T01:14:22.798Z,1.40
2023-08-06T01:16:52.048Z,1.35
2023-08-06T01:19:22.748Z,1.77
2023-08-06T01:21:50.943Z,1.20
2023-08-06T01:24:18.341Z,1.10
2023-08-06T01:27:24.862Z,1.38
2023-08-06T01:30:27.178Z,1.60
2023-08-06T01:33:01.410Z,1.70
2023-08-06T01:35:29.980Z,1.20
2023-08-06T01:37:59.819Z,1.42
2023-08-06T01:40:28.294Z,1.15
2023-08-06T01:42:55.493Z,1.48
2023-08-06T01:45:22.484Z,1.50
2023-08-06T01:47:50.637Z,1.40
2023-08-06T01:50:17.549Z,1.50
2023-08-06T01:52:45.674Z,1.40
2023-08-06T01:55:12.452Z,1.50
2023-08-06T01:57:40.348Z,1.65
2023-08-06T02:00:08.110Z,1.42
2023-08-06T02:02:41.962Z,1.50
2023-08-06T02:05:09.107Z,1.67
2023-08-06T02:07:35.986Z,1.30
2023-08-06T02:10:04.156Z,1.38
2023-08-06T02:12:30.955Z,1.58
2023-08-06T02:14:57.783Z,1.70
2023-08-06T02:17:24.619Z,1.35
2023-08-06T02:19:51.724Z,1.48
2023-08-06T02:22:18.541Z,1.38
2023-08-06T02:24:45.361Z,1.27
2023-08-06T02:27:12.155Z,1.40
2023-08-06T02:29:42.092Z,1.35
2023-08-06T02:32:09.016Z,1.38
2023-08-06T02:34:35.795Z,1.20
2023-08-06T02:37:02.555Z,1.20
2023-08-06T02:39:29.353Z,1.27
2023-08-06T02:41:58.858Z,1.10
2023-08-06T02:44:28.762Z,1.38
2023-08-06T02:46:55.642Z,1.40
2023-08-06T02:49:22.555Z,1.30
2023-08-06T02:51:49.380Z,1.58
2023-08-06T02:54:16.195Z,1.27
2023-08-06T02:56:47.385Z,1.50
2023-08-06T02:59:24.443Z,1.95
2023-08-06T03:02:04.019Z,1.10
2023-08-06T03:04:44.233Z,1.35
2023-08-06T03:07:11.914Z,1.38
2023-08-06T03:09:47.175Z,1.50
2023-08-06T03:12:14.689Z,1.58
2023-08-06T03:14:41.753Z,1.15
2023-08-06T03:17:08.936Z,1.40
2023-08-06T03:19:37.957Z,1.20
2023-08-06T03:22:05.889Z,1.17
2023-08-06T03:24:34.615Z,1.33
2023-08-06T03:27:02.845Z,1.60
2023-08-06T03:29:31.019Z,1.20
2023-08-06T03:32:00.943Z,1.58
2023-08-06T03:34:28.115Z,1.33
2023-08-06T03:36:55.287Z,1.30
2023-08-06T03:39:22.082Z,1.40
2023-08-06T03:41:48.842Z,1.50
2023-08-06T03:44:16.156Z,0.95
2023-08-06T03:46:43.511Z,1.27
2023-08-06T03:49:10.931Z,1.33
2023-08-06T03:51:37.680Z,1.23
2023-08-06T03:54:05.084Z,1.30
2023-08-06T03:56:31.919Z,1.30
2023-08-06T03:58:58.781Z,1.10
2023-08-06T04:01:25.762Z,1.20
2023-08-06T04:03:53.821Z,1.30
2023-08-06T04:06:20.696Z,1.10
2023-08-06T04:08:47.479Z,1.25
2023-08-06T04:11:14.504Z,1.20
2023-08-06T04:13:45.769Z,1.20
2023-08-06T04:16:13.535Z,1.30
2023-08-06T04:18:40.372Z,1.30
2023-08-06T04:21:07.205Z,1.20
2023-08-06T04:23:34.045Z,1.25
2023-08-06T04:26:04.812Z,0.90
2023-08-06T04:28:34.583Z,0.80
2023-08-06T04:31:01.424Z,0.88
2023-08-06T04:33:30.961Z,1.00
2023-08-06T04:36:00.884Z,1.02
2023-08-06T04:38:28.310Z,0.90
2023-08-06T04:40:56.123Z,0.90
2023-08-06T04:43:24.167Z,0.73
2023-08-06T04:45:54.420Z,0.82
2023-08-06T04:48:21.635Z,1.13
2023-08-06T04:50:50.004Z,1.10
2023-08-06T04:53:17.436Z,0.70
2023-08-06T04:55:44.213Z,0.90
2023-08-06T04:58:11.734Z,0.90
2023-08-06T05:00:38.517Z,0.63
2023-08-06T05:03:06.698Z,0.70
2023-08-06T05:05:34.179Z,0.55
2023-08-06T05:08:00.981Z,0.75
2023-08-06T05:10:28.195Z,0.70
2023-08-06T05:12:55.228Z,0.60
2023-08-06T05:15:22.038Z,0.50
2023-08-06T05:17:49.008Z,0.50
2023-08-06T05:20:15.871Z,0.47
2023-08-06T05:22:42.687Z,0.50
2023-08-06T05:25:09.786Z,0.50
2023-08-06T05:27:36.632Z,0.70
2023-08-06T05:30:03.538Z,0.50
2023-08-06T05:32:30.390Z,0.40
2023-08-06T05:34:57.181Z,0.73
2023-08-06T05:37:23.961Z,0.30
2023-08-06T05:39:52.913Z,0.60
2023-08-06T05:42:22.461Z,0.50
2023-08-06T05:44:49.204Z,0.40
2023-08-06T05:47:16.041Z,0.40
2023-08-06T05:49:42.775Z,0.47
2023-08-06T05:52:09.603Z,0.38
2023-08-06T05:54:36.357Z,0.47
2023-08-06T05:57:03.423Z,0.50
2023-08-06T05:59:30.361Z,0.63
2023-08-06T06:01:57.146Z,0.50
2023-08-06T06:04:23.964Z,0.40
2023-08-06T06:06:50.702Z,0.70
2023-08-06T06:09:17.498Z,0.73
2023-08-06T06:11:44.415Z,0.50
2023-08-06T06:14:11.195Z,0.50
2023-08-06T06:16:37.960Z,0.50
2023-08-06T06:19:04.774Z,0.25
2023-08-06T06:21:31.523Z,0.43
2023-08-06T06:23:58.421Z,0.45
2023-08-06T06:26:27.816Z,0.50
2023-08-06T06:28:54.746Z,0.30
2023-08-06T06:31:21.745Z,0.73
2023-08-06T06:33:48.638Z,0.60
2023-08-06T06:36:15.469Z,0.40
2023-08-06T06:38:42.525Z,0.50
2023-08-06T06:41:09.454Z,0.50
2023-08-06T06:43:36.256Z,0.40
2023-08-06T06:46:03.424Z,0.40
2023-08-06T06:48:33.003Z,0.45
2023-08-06T06:51:00.693Z,0.52
2023-08-06T06:53:30.709Z,0.52
2023-08-06T06:56:05.204Z,0.57
2023-08-06T06:58:35.194Z,0.50
2023-08-06T07:01:01.963Z,0.47
2023-08-06T07:03:28.957Z,0.50
2023-08-06T07:05:59.793Z,0.40
2023-08-06T07:08:27.098Z,0.32
2023-08-06T07:11:05.002Z,0.40
2023-08-06T07:13:33.452Z,0.30
2023-08-06T07:16:00.235Z,0.30
2023-08-06T07:18:27.190Z,0.20
2023-08-06T07:20:55.248Z,0.22
2023-08-06T07:23:23.396Z,0.25
2023-08-06T07:25:53.487Z,0.20
2023-08-06T07:28:20.570Z,0.15
2023-08-06T07:30:47.970Z,0.10
2023-08-06T07:33:14.741Z,0.08
2023-08-06T07:35:41.509Z,0.30
2023-08-06T07:38:08.440Z,0.20
2023-08-06T07:40:38.044Z,0.20
2023-08-06T07:43:04.852Z,0.17
2023-08-06T07:45:36.448Z,0.10
2023-08-06T07:48:03.719Z,0.10
2023-08-06T07:50:30.870Z,0.00
2023-08-06T07:52:57.702Z,0.00
2023-08-06T07:55:24.546Z,0.10
2023-08-06T07:57:51.364Z,0.10
2023-08-06T08:00:18.363Z,0.00
2023-08-06T08:02:45.287Z,0.10
2023-08-06T08:05:12.129Z,0.13
2023-08-06T08:07:38.922Z,0.00
2023-08-06T08:10:06.570Z,0.10
2023-08-06T08:12:33.359Z,0.05
2023-08-06T08:15:00.215Z,0.00
2023-08-06T08:17:27.029Z,0.03
2023-08-06T08:19:53.827Z,0.00
2023-08-06T08:22:20.586Z,0.13
2023-08-06T08:24:47.350Z,0.00
2023-08-06T08:27:14.128Z,0.00
2023-08-06T08:29:40.961Z,0.00
2023-08-06T08:32:07.844Z,0.00
2023-08-06T08:34:34.638Z,0.08
2023-08-06T08:37:01.483Z,0.10
2023-08-06T08:39:30.621Z,0.22
2023-08-06T08:41:57.329Z,0.28
2023-08-06T08:44:29.221Z,0.00
2023-08-06T08:46:56.641Z,0.05
2023-08-06T08:49:25.368Z,0.00
2023-08-06T08:51:54.891Z,0.00
2023-08-06T08:54:25.133Z,0.00
2023-08-06T08:56:52.017Z,0.15
2023-08-06T08:59:19.483Z,0.10
2023-08-06T09:01:51.474Z,0.10
2023-08-06T09:04:19.307Z,0.15
2023-08-06T09:06:51.250Z,0.00
2023-08-06T09:09:29.170Z,0.17
2023-08-06T09:12:00.654Z,0.00
2023-08-06T09:14:27.864Z,0.00
2023-08-06T09:16:55.546Z,0.15
2023-08-06T09:19:22.517Z,0.00
2023-08-06T09:21:52.670Z,0.08
2023-08-06T09:24:19.808Z,0.00
2023-08-06T09:26:46.689Z,0.00
2023-08-06T09:29:16.383Z,0.00
2023-08-06T09:31:46.997Z,0.00
2023-08-06T09:34:22.936Z,0.10
2023-08-06T09:36:54.848Z,0.00
2023-08-06T09:39:31.621Z,0.30
2023-08-06T09:42:00.094Z,0.00
2023-08-06T09:44:31.523Z,0.20
2023-08-06T09:47:00.898Z,0.00
2023-08-06T09:49:34.767Z,0.10
2023-08-06T09:52:06.081Z,0.00
2023-08-06T09:54:35.963Z,0.03
2023-08-06T09:57:03.482Z,0.03
2023-08-06T09:59:31.814Z,0.10
2023-08-06T10:02:03.814Z,0.10
2023-08-06T10:04:35.643Z,0.00
2023-08-06T10:07:08.020Z,0.20
2023-08-06T10:09:34.792Z,0.00
2023-08-06T10:12:02.306Z,0.10
2023-08-06T10:14:34.542Z,0.10
2023-08-06T10:17:01.735Z,0.08
2023-08-06T10:19:30.157Z,0.10
2023-08-06T10:22:11.398Z,0.20
2023-08-06T10:24:58.779Z,0.10
2023-08-06T10:27:33.806Z,0.10
2023-08-06T10:30:30.063Z,0.10
2023-08-06T10:33:04.841Z,0.10
2023-08-06T10:35:51.209Z,0.08
2023-08-06T10:38:23.160Z,0.10
2023-08-06T10:40:54.003Z,0.20
2023-08-06T10:43:34.306Z,0.20
2023-08-06T10:46:03.281Z,0.20
2023-08-06T10:48:37.368Z,0.40
2023-08-06T10:51:05.831Z,0.10
2023-08-06T10:53:34.375Z,0.10
2023-08-06T10:56:02.650Z,0.20
2023-08-06T10:58:36.002Z,0.20
2023-08-06T11:03:30.669Z,0.20
2023-08-06T11:05:57.860Z,0.15
2023-08-06T11:08:28.947Z,0.08
2023-08-06T11:11:03.410Z,0.10
2023-08-06T11:13:30.935Z,0.10
2023-08-06T11:15:59.348Z,0.10
2023-08-06T11:18:26.233Z,0.10
2023-08-06T11:20:53.136Z,0.28
2023-08-06T11:23:19.933Z,0.00
2023-08-06T11:25:47.201Z,0.10
2023-08-06T11:28:14.296Z,0.20
2023-08-06T11:30:41.835Z,0.52
2023-08-06T11:33:10.938Z,0.10
2023-08-06T11:35:38.865Z,0.17
2023-08-06T11:38:05.805Z,0.32
2023-08-06T11:40:34.189Z,0.15
2023-08-06T11:43:01.039Z,0.20
2023-08-06T11:45:27.892Z,0.20
2023-08-06T11:47:54.877Z,0.20
2023-08-06T11:50:29.199Z,0.20
2023-08-06T11:53:01.378Z,0.30
2023-08-06T11:55:29.782Z,0.47
2023-08-06T11:57:57.321Z,0.40
2023-08-06T12:00:25.678Z,0.30
2023-08-06T12:02:54.464Z,0.30
2023-08-06T12:05:25.342Z,0.30
2023-08-06T12:08:00.128Z,0.32
2023-08-06T12:10:28.950Z,0.22
2023-08-06T12:12:58.698Z,0.50
2023-08-06T12:15:25.842Z,0.45
2023-08-06T12:17:52.967Z,0.22
2023-08-06T12:20:19.874Z,0.10
2023-08-06T12:22:46.974Z,1.00
2023-08-06T12:25:14.418Z,0.28
2023-08-06T12:27:43.904Z,0.43
2023-08-06T12:30:12.392Z,0.40
2023-08-06T12:32:39.747Z,0.40
2023-08-06T12:35:08.662Z,0.40
2023-08-06T12:37:36.202Z,0.30
2023-08-06T12:40:15.861Z,0.65
2023-08-06T12:42:52.006Z,0.55
2023-08-06T12:45:22.245Z,0.50
2023-08-06T12:47:50.489Z,0.60
2023-08-06T12:50:18.391Z,0.50
2023-08-06T12:52:48.417Z,0.63
2023-08-06T12:55:15.303Z,0.73
2023-08-06T13:00:12.064Z,0.60
2023-08-06T13:02:38.960Z,0.77
2023-08-06T13:05:07.352Z,0.43
2023-08-06T13:07:34.278Z,0.60
2023-08-06T13:10:01.174Z,0.40
2023-08-06T13:12:28.350Z,1.00
2023-08-06T13:14:58.378Z,0.60
2023-08-06T13:17:25.299Z,0.50
2023-08-06T13:19:52.062Z,0.40
2023-08-06T13:22:18.840Z,0.82
2023-08-06T13:24:45.592Z,0.50
2023-08-06T13:27:12.539Z,0.77
2023-08-06T13:29:39.453Z,0.30
2023-08-06T13:32:06.608Z,0.35
2023-08-06T13:34:33.505Z,0.50
2023-08-06T13:37:00.372Z,0.47
2023-08-06T13:39:27.397Z,0.30
2023-08-06T13:41:56.876Z,0.40
2023-08-06T13:44:23.669Z,0.40
2023-08-06T13:46:50.544Z,0.30
2023-08-06T13:49:17.562Z,0.43
2023-08-06T13:51:44.453Z,0.40
2023-08-06T13:54:11.255Z,0.45
2023-08-06T13:56:39.003Z,0.70
2023-08-06T13:59:06.485Z,0.40
2023-08-06T14:17:17.761Z,0.38
2023-08-06T14:19:44.597Z,0.30
2023-08-06T14:22:11.451Z,0.22
2023-08-06T14:24:38.997Z,0.50
2023-08-06T14:27:07.166Z,0.55
2023-08-06T14:29:34.007Z,0.20
2023-08-06T14:32:00.846Z,0.38
2023-08-06T14:34:28.723Z,0.20
2023-08-06T14:36:57.876Z,0.38
2023-08-06T14:39:24.749Z,0.30
2023-08-06T14:41:51.535Z,0.45
2023-08-06T14:44:18.312Z,0.30
2023-08-06T14:46:45.123Z,0.20
2023-08-06T14:49:11.997Z,0.30
2023-08-06T14:51:41.837Z,0.40
2023-08-06T14:54:08.647Z,0.35
2023-08-06T14:56:35.668Z,0.60
2023-08-06T14:59:02.579Z,0.25
2023-08-06T15:01:31.227Z,0.22
2023-08-06T15:03:58.104Z,0.40
2023-08-06T15:06:24.953Z,0.47
2023-08-06T15:08:52.006Z,0.43
2023-08-06T15:11:19.118Z,0.35
2023-08-06T15:13:45.879Z,0.40
2023-08-06T15:16:12.843Z,0.35
2023-08-06T15:18:39.839Z,0.30
2023-08-06T15:21:06.690Z,0.57
2023-08-06T15:23:33.577Z,0.30
2023-08-06T15:26:00.608Z,0.20
2023-08-06T15:28:27.426Z,0.50
2023-08-06T15:30:56.062Z,0.20
2023-08-06T15:33:23.384Z,0.47
2023-08-06T15:35:50.633Z,0.25
2023-08-06T15:38:17.518Z,0.60
2023-08-06T15:40:46.567Z,0.40
2023-08-06T15:43:13.903Z,0.60
2023-08-06T15:45:40.691Z,0.40
2023-08-06T15:48:08.157Z,0.50
2023-08-06T15:50:34.948Z,0.47
2023-08-06T15:53:01.871Z,0.20
2023-08-06T15:55:29.152Z,0.20
2023-08-06T15:57:55.921Z,0.40
2023-08-06T16:00:22.861Z,0.50
2023-08-06T16:02:49.811Z,0.40
2023-08-06T16:05:16.913Z,0.40
2023-08-06T16:07:44.035Z,0.77
2023-08-06T16:10:11.200Z,0.30
2023-08-06T16:12:37.997Z,0.40
2023-08-06T16:15:07.831Z,0.60
2023-08-06T16:17:34.776Z,0.40
2023-08-06T16:20:01.875Z,0.47
2023-08-06T16:22:28.743Z,0.30
2023-08-06T16:24:55.569Z,0.63
2023-08-06T16:27:22.338Z,0.50
2023-08-06T16:29:49.441Z,0.50
2023-08-06T16:32:16.287Z,0.50
2023-08-06T16:34:43.184Z,0.40
2023-08-06T16:37:11.157Z,0.32
2023-08-06T16:39:40.074Z,0.40
2023-08-06T16:42:07.692Z,0.40
2023-08-06T16:44:34.561Z,0.52
2023-08-06T16:47:02.105Z,0.35
2023-08-06T16:49:28.907Z,0.40
2023-08-06T16:51:55.781Z,0.40
2023-08-06T16:54:24.150Z,1.40
2023-08-06T16:56:50.929Z,0.65
2023-08-06T16:59:17.836Z,1.13
2023-08-06T17:01:44.588Z,0.50
2023-08-06T17:04:12.682Z,0.65
2023-08-06T17:06:39.565Z,0.95
2023-08-06T17:09:06.963Z,0.57
2023-08-06T17:11:34.150Z,0.60
2023-08-06T17:14:01.558Z,1.02
2023-08-06T17:16:28.421Z,1.00
2023-08-06T17:18:55.252Z,0.80
2023-08-06T17:21:22.009Z,0.52
2023-08-06T17:23:48.905Z,0.70
2023-08-06T17:26:15.719Z,0.60
2023-08-06T17:28:42.519Z,0.65
2023-08-06T17:31:09.562Z,0.60
2023-08-06T17:33:36.491Z,0.65
2023-08-06T17:36:06.370Z,0.90
2023-08-06T17:38:33.320Z,1.00
2023-08-06T17:41:01.185Z,0.77
2023-08-06T17:43:28.024Z,1.60
2023-08-06T17:45:54.808Z,1.30
2023-08-06T17:48:21.688Z,1.60
2023-08-06T17:50:48.644Z,3.28
2023-08-06T17:53:15.595Z,1.40
2023-08-06T17:55:42.386Z,1.02
2023-08-06T17:58:10.218Z,0.80
2023-08-06T18:00:40.238Z,1.00
2023-08-06T18:03:07.175Z,0.90
2023-08-06T18:05:36.082Z,1.85
2023-08-06T18:08:03.218Z,1.13
2023-08-06T18:10:33.022Z,1.13
2023-08-06T18:12:59.849Z,1.60
2023-08-06T18:15:29.502Z,1.23
2023-08-06T18:17:56.405Z,1.30
2023-08-06T18:20:23.196Z,2.30
2023-08-06T18:22:51.131Z,2.63
2023-08-06T18:25:18.052Z,4.90
2023-08-06T18:27:44.938Z,3.83
2023-08-06T18:30:12.113Z,1.65
2023-08-06T18:32:39.024Z,2.05
2023-08-06T18:35:06.406Z,1.77
2023-08-06T18:37:35.288Z,1.30
2023-08-06T18:40:03.248Z,0.90
2023-08-06T18:42:30.612Z,1.00
2023-08-06T18:44:57.605Z,1.35
2023-08-06T18:47:26.463Z,1.30
2023-08-06T18:49:56.675Z,1.15
2023-08-06T18:52:23.552Z,1.15
2023-08-06T18:54:50.475Z,0.80
2023-08-06T18:57:17.248Z,1.10
2023-08-06T18:59:44.098Z,1.20
2023-08-06T19:02:10.928Z,1.00
2023-08-06T19:04:38.025Z,0.90
2023-08-06T19:07:05.064Z,0.93
2023-08-06T19:09:31.852Z,1.23
2023-08-06T19:11:58.622Z,1.17
2023-08-06T19:14:27.794Z,0.90
2023-08-06T19:16:57.507Z,1.17
2023-08-06T19:19:26.245Z,0.82
2023-08-06T19:21:58.929Z,1.13
2023-08-06T19:24:27.999Z,1.05
2023-08-06T19:26:56.937Z,0.80
2023-08-06T19:29:24.035Z,0.82
2023-08-06T19:32:04.481Z,1.10
2023-08-06T19:34:32.864Z,1.08
2023-08-06T19:36:59.759Z,1.00
2023-08-06T19:39:26.596Z,0.93
2023-08-06T19:41:53.684Z,1.02
2023-08-06T19:44:20.733Z,0.88
2023-08-06T19:46:47.955Z,1.00
2023-08-06T19:49:14.894Z,1.13
2023-08-06T19:51:41.790Z,0.90
2023-08-06T19:54:08.957Z,0.88
2023-08-06T19:56:36.389Z,1.10
2023-08-06T19:59:04.171Z,1.23
2023-08-06T20:01:35.590Z,0.70
2023-08-06T20:04:02.459Z,0.70
2023-08-06T20:06:32.111Z,0.85
2023-08-06T20:08:59.182Z,0.73
2023-08-06T20:11:26.012Z,0.85
2023-08-06T20:13:52.927Z,1.10
2023-08-06T20:16:19.899Z,0.98
2023-08-06T20:18:46.777Z,0.70
2023-08-06T20:21:13.821Z,0.90
2023-08-06T20:23:41.780Z,1.00
2023-08-06T20:26:08.647Z,0.90
2023-08-06T20:28:35.498Z,1.05
2023-08-06T20:31:02.413Z,0.90
2023-08-06T20:33:29.410Z,0.88
2023-08-06T20:35:56.351Z,0.80
2023-08-06T20:38:24.263Z,0.90
2023-08-06T20:40:51.190Z,1.10
2023-08-06T20:43:18.691Z,0.77
2023-08-06T20:45:56.214Z,0.80
2023-08-06T20:48:23.807Z,0.80
2023-08-06T20:50:51.162Z,1.02
2023-08-06T20:53:18.060Z,0.73
2023-08-06T20:55:44.910Z,0.70
2023-08-06T20:58:11.891Z,0.70
2023-08-06T21:00:39.990Z,1.00
2023-08-06T21:03:06.850Z,0.90
2023-08-06T21:05:33.802Z,0.63
2023-08-06T21:08:00.649Z,0.93
2023-08-06T21:10:28.027Z,1.00
2023-08-06T21:12:55.171Z,0.95
2023-08-06T21:15:21.994Z,0.88
2023-08-06T21:17:48.915Z,0.60
2023-08-06T21:20:15.817Z,0.57
2023-08-06T21:22:42.655Z,0.80
2023-08-06T21:25:09.649Z,0.60
2023-08-06T21:27:36.532Z,0.70
2023-08-06T21:30:03.574Z,0.90
2023-08-06T21:32:30.614Z,0.65
2023-08-06T21:34:57.437Z,0.40
2023-08-06T21:37:24.196Z,0.60
2023-08-06T21:39:51.030Z,0.77
2023-08-06T21:42:17.996Z,0.60
2023-08-06T21:44:44.815Z,1.00
2023-08-06T21:47:12.500Z,0.80
2023-08-06T21:49:39.298Z,0.68
2023-08-06T21:52:06.486Z,0.60
2023-08-06T21:54:33.230Z,0.80
2023-08-06T21:57:00.333Z,0.80
2023-08-06T21:59:27.069Z,0.32
2023-08-06T22:01:56.893Z,0.82
2023-08-06T22:04:23.986Z,0.80
2023-08-06T22:06:50.861Z,0.77
2023-08-06T22:09:17.755Z,0.80
2023-08-06T22:11:44.528Z,0.82
2023-08-06T22:14:11.303Z,0.70
2023-08-06T22:16:40.403Z,0.80
2023-08-06T22:19:07.349Z,0.80
2023-08-06T22:21:34.150Z,0.98
2023-08-06T22:24:01.036Z,0.82
2023-08-06T22:26:27.869Z,0.60
2023-08-06T22:29:01.068Z,1.08
2023-08-06T22:31:28.695Z,1.02
2023-08-06T22:33:55.509Z,0.95
2023-08-06T22:36:22.425Z,1.13
2023-08-06T22:38:49.235Z,1.35
2023-08-06T22:41:16.075Z,1.15
2023-08-06T22:43:43.005Z,0.80
2023-08-06T22:46:09.799Z,0.95
2023-08-06T22:48:36.595Z,0.80
2023-08-06T22:51:03.499Z,1.00
2023-08-06T22:53:30.304Z,0.98
2023-08-06T22:56:08.532Z,0.80
2023-08-06T22:58:36.672Z,0.85
2023-08-06T23:01:03.448Z,1.20
2023-08-06T23:03:30.532Z,0.95
2023-08-06T23:05:57.453Z,0.98
2023-08-06T23:08:24.385Z,0.90
2023-08-06T23:10:53.837Z,0.90
2023-08-06T23:13:20.788Z,0.90
2023-08-06T23:15:48.929Z,1.10
2023-08-06T23:18:15.805Z,1.27
2023-08-06T23:20:44.864Z,1.02
2023-08-06T23:23:11.660Z,1.10
2023-08-06T23:25:38.611Z,1.30
2023-08-06T23:28:05.529Z,1.00
2023-08-06T23:30:32.427Z,0.93
2023-08-06T23:32:59.406Z,0.80
2023-08-06T23:35:26.302Z,0.93
2023-08-06T23:37:53.044Z,1.00
2023-08-06T23:40:21.715Z,1.13
2023-08-06T23:42:48.884Z,0.90
2023-08-06T23:45:15.864Z,1.00
2023-08-06T23:47:44.108Z,1.20
2023-08-06T23:50:11.121Z,0.90
2023-08-06T23:52:37.905Z,0.93
2023-08-06T23:55:05.076Z,0.93
2023-08-06T23:57:32.734Z,1.33
2023-08-06T23:59:59.599Z,1.20
